Time;durP1;ratioP1;P1;durP2;ratioP2;P2;SDS_P1;SDS_P2;PMS_P1;PMS_P2;Temp;Humidity;BMP_temperature;BMP_pressure;BME280_temperature;BME280_humidity;BME280_pressure;Samples;Min_cycle;Max_cycle;Signal;HPM_P1;HPM_P2
2023/11/22 00:02:34;;;;;;;0.10;0.10;;;3.30;98.90;;;;;;25337381;23;20010;-58
2023/11/22 00:12:38;;;;;;;0.40;0.10;;;3.00;98.90;;;;;;25337497;23;20339;-55
2023/11/22 00:22:40;;;;;;;0.40;0.10;;;3.20;98.80;;;;;;25446122;23;20014;-51
2023/11/22 00:32:42;;;;;;;0.38;0.20;;;3.10;98.70;;;;;;25477087;23;20006;-52
2023/11/22 00:42:44;;;;;;;0.20;0.10;;;3.50;98.40;;;;;;25450368;23;20064;-48
2023/11/22 00:52:52;;;;;;;0.10;0.00;;;3.70;98.10;;;;;;25474989;23;20040;-58
2023/11/22 01:02:56;;;;;;;0.63;0.10;;;3.60;98.00;;;;;;25475987;23;20381;-54
2023/11/22 01:12:58;;;;;;;0.00;0.00;;;3.60;97.80;;;;;;25475740;23;20319;-49
2023/11/22 01:23:01;;;;;;;0.52;0.10;;;3.80;97.80;;;;;;25449377;23;20052;-47
2023/11/22 01:33:02;;;;;;;0.00;0.00;;;3.90;97.80;;;;;;25472443;23;20060;-59
2023/11/22 01:43:05;;;;;;;0.10;0.00;;;3.60;97.90;;;;;;25474464;23;20013;-55
2023/11/22 01:53:10;;;;;;;0.10;0.00;;;3.80;97.70;;;;;;25472308;23;20434;-60
2023/11/22 02:03:12;;;;;;;0.30;0.10;;;3.90;97.40;;;;;;25475082;23;20002;-49
2023/11/22 02:13:14;;;;;;;0.10;0.10;;;3.80;97.80;;;;;;25471496;23;20009;-50
2023/11/22 02:23:17;;;;;;;0.10;0.10;;;3.50;97.90;;;;;;25472754;23;20001;-58
2023/11/22 02:33:20;;;;;;;0.10;0.10;;;3.40;98.10;;;;;;25472121;23;20012;-59
2023/11/22 02:43:23;;;;;;;0.03;0.00;;;3.40;97.80;;;;;;25471904;23;20072;-60
2023/11/22 02:53:24;;;;;;;0.00;0.00;;;3.70;97.40;;;;;;25470433;23;20005;-58
2023/11/22 03:03:28;;;;;;;0.10;0.03;;;3.60;97.20;;;;;;25471659;23;20009;-59
2023/11/22 03:13:29;;;;;;;0.20;0.10;;;3.60;97.00;;;;;;25471553;23;20006;-49
2023/11/22 03:23:31;;;;;;;0.03;0.03;;;3.60;97.10;;;;;;25471015;23;20040;-60
2023/11/22 03:33:33;;;;;;;0.20;0.10;;;3.30;97.50;;;;;;25470668;23;20014;-60
2023/11/22 03:43:35;;;;;;;0.22;0.00;;;3.30;97.30;;;;;;25337377;23;20018;-49
2023/11/22 03:53:37;;;;;;;0.00;0.00;;;3.50;96.40;;;;;;25339274;23;20458;-60
2023/11/22 04:03:38;;;;;;;0.10;0.00;;;3.70;96.00;;;;;;25345367;23;20013;-52
2023/11/22 04:13:41;;;;;;;2.05;0.00;;;3.70;96.20;;;;;;25364725;23;20287;-59
2023/11/22 04:23:42;;;;;;;0.00;0.00;;;4.00;95.40;;;;;;25477524;23;20033;-59
2023/11/22 04:33:44;;;;;;;0.20;0.00;;;4.10;95.40;;;;;;25477207;23;20005;-59
2023/11/22 04:43:46;;;;;;;0.20;0.00;;;4.20;94.90;;;;;;25476988;23;20410;-60
2023/11/22 04:53:48;;;;;;;0.10;0.00;;;4.10;95.20;;;;;;25474736;23;20065;-60
2023/11/22 05:03:49;;;;;;;0.03;0.00;;;4.20;95.00;;;;;;25475822;23;20016;-60
2023/11/22 05:13:51;;;;;;;0.52;0.00;;;4.00;94.70;;;;;;25475826;23;20029;-59
2023/11/22 05:23:54;;;;;;;0.00;0.00;;;4.10;94.70;;;;;;25475400;23;20009;-59
2023/11/22 05:33:59;;;;;;;0.00;0.00;;;4.00;94.80;;;;;;25473257;23;20032;-59
2023/11/22 05:44:00;;;;;;;0.30;0.00;;;3.90;95.50;;;;;;25474255;23;20045;-60
2023/11/22 05:54:02;;;;;;;0.00;0.00;;;3.80;94.80;;;;;;25473954;23;20472;-60
2023/11/22 06:04:05;;;;;;;0.00;0.00;;;3.60;95.30;;;;;;25473109;23;20056;-60
2023/11/22 06:14:06;;;;;;;0.05;0.00;;;3.60;95.00;;;;;;25473274;23;20006;-59
2023/11/22 06:24:11;;;;;;;0.00;0.00;;;3.60;94.90;;;;;;25472733;23;20005;-60
2023/11/22 06:34:12;;;;;;;0.00;0.00;;;3.60;95.00;;;;;;25472352;23;20006;-60
2023/11/22 06:44:15;;;;;;;0.00;0.00;;;3.50;94.80;;;;;;25470755;23;20016;-60
2023/11/22 06:54:20;;;;;;;0.47;0.00;;;3.80;94.80;;;;;;25470376;23;20009;-60
2023/11/22 07:04:22;;;;;;;0.10;0.00;;;3.80;94.50;;;;;;25471598;23;20006;-59
2023/11/22 07:14:26;;;;;;;0.10;0.00;;;3.90;94.30;;;;;;25445131;23;20018;-60
2023/11/22 07:24:34;;;;;;;0.00;0.00;;;4.20;94.20;;;;;;25444413;23;20433;-57
2023/11/22 07:34:36;;;;;;;0.13;0.00;;;4.70;93.50;;;;;;25522871;23;20024;-56
2023/11/22 07:44:38;;;;;;;0.10;0.00;;;5.10;92.70;;;;;;25482711;23;20018;-57
2023/11/22 07:54:40;;;;;;;0.10;0.00;;;5.60;92.60;;;;;;25482529;23;20017;-48
2023/11/22 08:04:44;;;;;;;0.00;0.00;;;6.10;92.20;;;;;;25484213;23;20005;-57
2023/11/22 08:14:46;;;;;;;0.40;0.00;;;6.40;92.60;;;;;;25481772;23;20009;-49
2023/11/22 08:24:48;;;;;;;0.05;0.00;;;6.50;91.50;;;;;;25483707;23;20009;-58
2023/11/22 08:34:51;;;;;;;0.00;0.00;;;6.60;90.40;;;;;;25483251;23;20009;-58
2023/11/22 08:44:53;;;;;;;0.00;0.00;;;6.80;90.70;;;;;;25478025;23;20024;-51
2023/11/22 08:54:55;;;;;;;0.00;0.00;;;6.90;90.00;;;;;;25476152;23;20410;-47
2023/11/22 09:04:57;;;;;;;0.90;0.10;;;7.00;90.00;;;;;;25475993;23;20013;-51
2023/11/22 09:14:58;;;;;;;0.45;0.00;;;7.10;89.70;;;;;;25474842;23;20010;-48
2023/11/22 09:25:00;;;;;;;2.65;0.00;;;7.30;90.20;;;;;;25474959;23;20036;-51
2023/11/22 09:35:03;;;;;;;0.10;0.00;;;7.70;88.70;;;;;;25474869;23;20334;-49
2023/11/22 09:45:05;;;;;;;0.10;0.00;;;7.70;88.50;;;;;;25474522;23;20385;-50
2023/11/22 09:55:09;;;;;;;0.00;0.00;;;7.70;88.10;;;;;;25473708;23;20013;-57
2023/11/22 10:05:11;;;;;;;0.10;0.00;;;7.90;87.40;;;;;;25473436;23;20508;-58
2023/11/22 10:15:15;;;;;;;0.13;0.00;;;8.00;86.80;;;;;;25473462;23;20014;-58
2023/11/22 10:25:18;;;;;;;0.10;0.05;;;8.30;85.90;;;;;;25472906;23;20503;-58
2023/11/22 10:35:22;;;;;;;0.00;0.00;;;8.70;86.40;;;;;;25473849;23;20010;-58
2023/11/22 10:45:30;;;;;;;0.10;0.00;;;8.50;84.10;;;;;;25479342;23;20033;-58
2023/11/22 10:55:33;;;;;;;0.57;0.00;;;8.80;84.00;;;;;;25512529;23;20020;-57
2023/11/22 11:05:41;;;;;;;0.10;0.00;;;9.00;84.30;;;;;;25470900;23;20040;-58
2023/11/22 11:15:44;;;;;;;0.00;0.00;;;8.90;82.70;;;;;;25511910;23;20009;-58
2023/11/22 11:26:22;;;;;;;0.00;0.00;;;9.10;82.30;;;;;;25471245;23;20013;-58
2023/11/22 11:36:26;;;;;;;0.17;0.00;;;9.30;80.40;;;;;;25468124;23;20343;-54
2023/11/22 11:46:33;;;;;;;0.00;0.00;;;9.30;81.20;;;;;;25470437;23;20006;-59
2023/11/22 11:56:35;;;;;;;0.50;0.00;;;9.40;82.00;;;;;;25511064;23;20442;-57
2023/11/22 12:06:39;;;;;;;2.83;0.00;;;9.20;80.20;;;;;;25470487;23;20008;-57
2023/11/22 12:16:44;;;;;;;0.10;0.00;;;9.20;80.80;;;;;;25473632;23;20002;-57
2023/11/22 12:26:50;;;;;;;0.00;0.00;;;9.20;79.40;;;;;;25476657;23;20009;-59
2023/11/22 12:36:52;;;;;;;0.30;0.00;;;9.10;80.70;;;;;;25475795;23;20064;-59
2023/11/22 12:46:59;;;;;;;0.25;0.10;;;9.10;79.60;;;;;;25477623;23;20017;-59
2023/11/22 12:57:01;;;;;;;0.00;0.00;;;8.90;80.00;;;;;;25517453;23;20346;-59
2023/11/22 13:07:03;;;;;;;0.10;0.00;;;8.60;81.60;;;;;;25476175;23;20001;-58
2023/11/22 13:17:06;;;;;;;0.08;0.00;;;8.60;80.30;;;;;;25475835;23;20017;-60
2023/11/22 13:27:11;;;;;;;0.10;0.00;;;8.50;79.40;;;;;;25474958;23;20009;-60
2023/11/22 13:37:15;;;;;;;0.20;0.10;;;8.30;81.00;;;;;;25474731;23;20008;-57
2023/11/22 13:47:18;;;;;;;0.08;0.00;;;8.20;80.50;;;;;;25473858;23;20009;-51
2023/11/22 13:57:20;;;;;;;0.00;0.00;;;8.20;81.60;;;;;;25474003;23;20060;-49
2023/11/22 14:07:21;;;;;;;0.13;0.00;;;8.00;80.60;;;;;;25474137;23;20337;-47
2023/11/22 14:17:26;;;;;;;0.00;0.00;;;7.90;81.30;;;;;;25473539;23;20005;-50
2023/11/22 14:27:30;;;;;;;0.00;0.00;;;7.90;80.50;;;;;;25473069;23;20005;-56
2023/11/22 14:37:33;;;;;;;1.65;0.00;;;7.80;81.10;;;;;;25471957;23;20001;-48
2023/11/22 14:47:36;;;;;;;0.20;0.00;;;7.70;81.70;;;;;;25472634;23;20508;-60
2023/11/22 14:57:38;;;;;;;0.20;0.03;;;7.30;83.10;;;;;;25472136;23;20512;-52
2023/11/22 15:07:42;;;;;;;0.10;0.00;;;6.60;84.60;;;;;;25470839;23;20017;-59
2023/11/22 15:17:44;;;;;;;0.05;0.00;;;6.20;87.30;;;;;;25470924;23;20005;-60
2023/11/22 15:27:46;;;;;;;0.20;0.00;;;5.50;88.80;;;;;;25471304;23;20006;-58
2023/11/22 15:37:48;;;;;;;0.00;0.00;;;5.10;89.70;;;;;;25470762;23;20097;-60
2023/11/22 15:47:50;;;;;;;0.45;0.00;;;4.60;91.10;;;;;;25512166;23;20072;-50
2023/11/22 15:57:52;;;;;;;0.10;0.00;;;4.40;90.60;;;;;;25479134;23;20060;-57
2023/11/22 16:07:54;;;;;;;0.35;0.00;;;4.20;91.40;;;;;;25478724;23;20006;-53
2023/11/22 16:17:59;;;;;;;0.17;0.08;;;4.80;90.70;;;;;;25478004;23;20325;-47
2023/11/22 16:28:00;;;;;;;0.30;0.00;;;4.30;91.40;;;;;;25476843;23;20013;-59
2023/11/22 16:38:03;;;;;;;0.08;0.00;;;4.10;91.80;;;;;;25477109;23;20441;-60
2023/11/22 16:48:05;;;;;;;0.40;0.00;;;4.10;91.70;;;;;;25475607;23;20005;-60
2023/11/22 16:58:07;;;;;;;0.60;0.00;;;4.20;91.70;;;;;;25475212;23;20028;-60
2023/11/22 17:08:09;;;;;;;0.30;0.03;;;4.20;91.70;;;;;;25475807;23;20048;-61
2023/11/22 17:18:12;;;;;;;0.30;0.00;;;4.60;90.60;;;;;;25475793;23;20050;-60
2023/11/22 17:28:14;;;;;;;0.10;0.00;;;4.50;90.50;;;;;;25475429;23;20002;-60
2023/11/22 17:38:16;;;;;;;0.43;0.10;;;4.60;90.30;;;;;;25475033;23;20313;-55
2023/11/22 17:48:18;;;;;;;0.43;0.10;;;4.30;90.60;;;;;;25474860;23;19998;-53
2023/11/22 17:58:20;;;;;;;0.35;0.10;;;3.60;91.90;;;;;;25474684;23;20381;-60
2023/11/22 18:08:22;;;;;;;0.00;0.00;;;2.90;93.00;;;;;;25473386;23;20005;-60
2023/11/22 18:18:24;;;;;;;1.58;0.08;;;2.50;93.80;;;;;;25472997;23;20002;-60
2023/11/22 18:28:26;;;;;;;0.52;0.10;;;2.40;93.70;;;;;;25473561;23;20052;-60
2023/11/22 18:38:29;;;;;;;0.10;0.00;;;2.80;92.60;;;;;;25472559;23;20504;-47
2023/11/22 18:48:32;;;;;;;0.10;0.03;;;3.60;91.50;;;;;;25472473;23;20048;-57
2023/11/22 18:58:35;;;;;;;0.10;0.00;;;3.90;90.10;;;;;;25472172;23;20105;-59
2023/11/22 19:08:38;;;;;;;0.10;0.00;;;3.60;91.70;;;;;;25471436;23;20382;-60
2023/11/22 19:18:41;;;;;;;0.13;0.00;;;2.80;93.00;;;;;;25471481;23;20013;-52
2023/11/22 19:28:43;;;;;;;0.17;0.00;;;2.40;93.20;;;;;;25470506;23;20504;-46
2023/11/22 19:38:44;;;;;;;1.27;0.10;;;2.30;93.10;;;;;;25470860;23;20341;-49
2023/11/22 19:48:46;;;;;;;0.10;0.00;;;2.50;92.90;;;;;;25470748;23;20010;-60
2023/11/22 19:58:48;;;;;;;0.20;0.10;;;2.40;93.20;;;;;;25470971;23;20009;-49
2023/11/22 20:08:50;;;;;;;0.10;0.00;;;2.80;91.60;;;;;;25470438;23;20010;-50
2023/11/22 20:18:51;;;;;;;0.63;0.00;;;3.60;90.60;;;;;;25470464;23;20500;-59
2023/11/22 20:28:53;;;;;;;0.10;0.10;;;3.70;90.70;;;;;;25468605;23;20381;-53
2023/11/22 20:38:55;;;;;;;0.73;0.10;;;3.50;91.10;;;;;;25473939;23;20350;-46
2023/11/22 20:48:59;;;;;;;0.52;0.10;;;3.30;91.50;;;;;;25475488;23;20013;-49
2023/11/22 20:59:02;;;;;;;0.10;0.00;;;3.10;91.90;;;;;;25476153;23;20009;-52
2023/11/22 21:09:08;;;;;;;0.10;0.00;;;2.90;92.00;;;;;;25476213;23;20017;-53
2023/11/22 21:19:13;;;;;;;0.32;0.10;;;2.80;92.30;;;;;;25515109;23;20060;-57
2023/11/22 21:29:19;;;;;;;0.20;0.00;;;2.80;92.10;;;;;;25516489;23;20013;-46
2023/11/22 21:39:23;;;;;;;0.63;0.10;;;3.00;91.80;;;;;;25507025;23;20090;-58
2023/11/22 21:49:25;;;;;;;0.00;0.00;;;3.10;91.20;;;;;;25472848;23;20006;-47
2023/11/22 21:59:27;;;;;;;0.00;0.00;;;3.20;91.30;;;;;;25474195;23;20030;-60
2023/11/22 22:09:29;;;;;;;0.00;0.00;;;3.20;91.20;;;;;;25472988;23;20013;-59
2023/11/22 22:19:30;;;;;;;0.10;0.00;;;3.00;91.10;;;;;;25340473;23;20045;-60
2023/11/22 22:29:32;;;;;;;0.10;0.00;;;3.20;91.40;;;;;;25340154;23;20041;-60
2023/11/22 22:39:34;;;;;;;0.10;0.00;;;2.80;91.50;;;;;;25339641;23;20014;-60
2023/11/22 22:49:38;;;;;;;0.17;0.08;;;2.30;91.80;;;;;;25358987;23;20013;-59
2023/11/22 22:59:43;;;;;;;0.10;0.05;;;2.30;91.60;;;;;;25471199;23;20009;-59
2023/11/22 23:09:46;;;;;;;0.40;0.08;;;2.80;90.80;;;;;;25471453;23;20385;-60
2023/11/22 23:19:48;;;;;;;0.00;0.00;;;3.30;89.30;;;;;;25471555;23;20001;-60
2023/11/22 23:29:53;;;;;;;0.20;0.00;;;3.20;89.10;;;;;;25469309;23;20010;-60
2023/11/22 23:39:59;;;;;;;0.20;0.00;;;3.10;89.40;;;;;;25470000;23;20013;-60
2023/11/22 23:50:08;;;;;;;0.10;0.00;;;3.20;88.20;;;;;;25511553;23;20044;-58
